الصفحة الرئيسية
METAR-TAF:

METAR-TAF

مطار :

Coonamble, أستراليا

دائرة عرض: 30-59-00S, خط طول: 148-22-30E, ارتفاع: 184 متر

مراقبة الطقس الحالي

تاريخ ووقت الإصدار 38 دقيقة قبل الساعة 21:00UTC
ريح 7 عقدة من الجنوب
درجة الحرارة 8°درجة مئوية
الرطوبة 100%
ضغط 1021 hPa

METAR: YCNM 252100Z AUTO 19007KT //// // ////// 08/08 Q1021

زمن: 07:38 (21:38 UTC)


TAF: مفقودة

أرصاد الطقس والتوقعات من أكثر من 4000 مطار (تقارير الطقس للمطار METAR والتنبؤ بالطقس بالمطارTAF).

المحطات المتاحة هي النقط الصفراء والحمراء على الخريطة.

حرك المؤشر فوق النقطة لمعرفة اسم المحطة.

ثم انقر لمعرفة أرصاد وتوقعات الطقس.

لتغيير الخارطة: اضغط على الأزرار الخضراء مع رمز الصليب الأسود للتكبير. على الزر الأخضر مع شرطة للتصغير، أو على الأسهم الخضراء للخرائط المجاورة.


METAR-TAF: